Time;durP1;ratioP1;P1;durP2;ratioP2;P2;SDS_P1;SDS_P2;PMS_P1;PMS_P2;Temp;Humidity;BMP_temperature;BMP_pressure;BME280_temperature;BME280_humidity;BME280_pressure;Samples;Min_cycle;Max_cycle;Signal;HPM_P1;HPM_P2
2022/11/07 00:00:38;;;;;;;;;2.00;1.00;;;;;-145.03;100.00;62373.16;5002959;28;45468;-72
2022/11/07 00:03:04;;;;;;;;;1.00;0.00;;;;;-145.03;100.00;62373.16;5036436;28;45543;-72
2022/11/07 00:05:29;;;;;;;;;5.67;1.33;;;;;-145.03;100.00;62373.16;5015296;28;45389;-72
2022/11/07 00:07:56;;;;;;;;;2.00;1.00;;;;;-145.03;100.00;62373.16;5035844;28;46163;-71
2022/11/07 00:10:22;;;;;;;;;2.00;1.33;;;;;-145.03;100.00;62373.16;5036112;28;45541;-71
2022/11/07 00:12:47;;;;;;;;;2.00;1.00;;;;;-145.03;100.00;62373.16;5018314;28;45448;-71
2022/11/07 00:15:13;;;;;;;;;0.00;0.00;;;;;-145.03;100.00;62373.16;5039738;28;45438;-71
2022/11/07 00:17:38;;;;;;;;;2.00;1.00;;;;;-145.03;100.00;62373.16;5039763;28;46191;-71
2022/11/07 00:20:04;;;;;;;;;2.67;1.67;;;;;-145.03;100.00;62373.16;5039647;28;45470;-72
2022/11/07 00:22:30;;;;;;;;;2.00;2.00;;;;;-145.03;100.00;62373.16;5040072;28;45540;-71
2022/11/07 00:24:55;;;;;;;;;3.67;2.33;;;;;-145.03;100.00;62373.16;5039889;28;45389;-71
2022/11/07 00:27:21;;;;;;;;;3.00;2.00;;;;;-145.03;100.00;62373.16;5039560;28;45505;-71
2022/11/07 00:29:46;;;;;;;;;3.33;1.00;;;;;-145.03;100.00;62373.16;5038089;28;45416;-71
2022/11/07 00:32:13;;;;;;;;;3.33;1.00;;;;;-145.03;100.00;62373.16;5039684;28;45282;-71
2022/11/07 00:34:39;;;;;;;;;1.67;1.00;;;;;-145.03;100.00;62373.16;5039771;28;45468;-71
2022/11/07 00:37:04;;;;;;;;;2.33;1.00;;;;;-145.03;100.00;62373.16;5037921;28;46832;-71
2022/11/07 00:39:30;;;;;;;;;2.00;2.00;;;;;-145.03;100.00;62373.16;5039624;28;45752;-71
2022/11/07 00:41:56;;;;;;;;;2.67;1.00;;;;;-145.03;100.00;62373.16;5021678;28;45464;-71
2022/11/07 00:44:21;;;;;;;;;3.00;1.00;;;;;-145.03;100.00;62373.16;5028008;28;45477;-71
2022/11/07 00:46:47;;;;;;;;;3.00;0.00;;;;;-145.03;100.00;62373.16;5036273;28;45605;-71
2022/11/07 00:49:12;;;;;;;;;1.00;1.00;;;;;-145.03;100.00;62373.16;5039098;28;45363;-71
2022/11/07 00:51:38;;;;;;;;;1.00;1.00;;;;;-145.03;100.00;62373.16;5021002;28;45601;-71
2022/11/07 00:54:03;;;;;;;;;1.67;0.00;;;;;-145.03;100.00;62373.16;5039611;28;45587;-71
2022/11/07 00:56:29;;;;;;;;;2.33;1.00;;;;;-145.03;100.00;62373.16;5038757;28;46145;-72
2022/11/07 00:58:59;;;;;;;;;2.00;1.00;;;;;-145.03;100.00;62373.16;5039306;28;45755;-71
2022/11/07 01:01:28;;;;;;;;;1.00;0.00;;;;;-145.03;100.00;62373.16;5039230;28;45372;-72
2022/11/07 01:06:41;;;;;;;;;1.00;1.00;;;;;-145.03;100.00;62373.16;5038848;28;45524;-72
2022/11/07 01:09:08;;;;;;;;;1.00;1.00;;;;;-145.03;100.00;62373.16;5038901;28;45369;-72
2022/11/07 01:11:37;;;;;;;;;3.00;1.00;;;;;-145.03;100.00;62373.16;5026190;28;45381;-81
2022/11/07 01:14:03;;;;;;;;;1.33;1.00;;;;;-145.03;100.00;62373.16;5039050;28;45455;-81
2022/11/07 01:16:29;;;;;;;;;3.00;1.00;;;;;-145.03;100.00;62373.16;5038756;28;45525;-81
2022/11/07 01:18:55;;;;;;;;;1.00;1.00;;;;;-145.03;100.00;62373.16;5038197;28;45431;-81
2022/11/07 01:21:21;;;;;;;;;4.33;2.00;;;;;-145.03;100.00;62373.16;5027627;28;45451;-81
2022/11/07 01:23:47;;;;;;;;;1.00;1.00;;;;;-145.03;100.00;62373.16;5038772;28;45559;-82
2022/11/07 01:26:14;;;;;;;;;5.00;1.00;;;;;-145.03;100.00;62373.16;5037306;28;45471;-81
2022/11/07 01:28:39;;;;;;;;;2.00;2.00;;;;;-145.03;100.00;62373.16;5038660;28;45556;-81
2022/11/07 01:31:11;;;;;;;;;2.00;0.00;;;;;-145.03;100.00;62373.16;5026076;28;46415;-81
2022/11/07 01:33:38;;;;;;;;;2.33;2.33;;;;;-145.03;100.00;62373.16;5038828;28;45405;-81
2022/11/07 01:36:10;;;;;;;;;0.00;0.00;;;;;-145.03;100.00;62373.16;5038383;28;46309;-81
2022/11/07 01:38:38;;;;;;;;;1.67;1.00;;;;;-145.03;100.00;62373.16;5038589;28;45384;-81
2022/11/07 01:44:19;;;;;;;;;1.67;0.33;;;;;-145.03;100.00;62373.16;5031955;28;45779;-81
2022/11/07 01:46:46;;;;;;;;;3.00;1.00;;;;;-145.03;100.00;62373.16;4976225;28;45405;-84
2022/11/07 01:49:18;;;;;;;;;0.67;0.67;;;;;-145.03;100.00;62373.16;4976410;28;45546;-85
2022/11/07 01:51:49;;;;;;;;;1.00;0.33;;;;;-145.03;100.00;62373.16;4976858;28;45403;-83
2022/11/07 01:54:21;;;;;;;;;2.00;0.67;;;;;-145.03;100.00;62373.16;4976807;28;45483;-84
2022/11/07 01:56:48;;;;;;;;;4.67;2.00;;;;;-145.03;100.00;62373.16;4976203;28;46245;-84
2022/11/07 01:59:18;;;;;;;;;1.33;1.00;;;;;-145.03;100.00;62373.16;4958086;28;45341;-84
2022/11/07 02:01:44;;;;;;;;;2.00;1.00;;;;;-145.03;100.00;62373.16;4974738;28;45859;-84
2022/11/07 02:04:10;;;;;;;;;6.00;1.67;;;;;-145.03;100.00;62373.16;4975628;28;45635;-83
2022/11/07 02:06:53;;;;;;;;;1.00;1.00;;;;;-145.03;100.00;62373.16;4974027;28;46456;-84
2022/11/07 02:09:19;;;;;;;;;0.00;0.00;;;;;-145.03;100.00;62373.16;4972853;28;45506;-84
2022/11/07 02:11:44;;;;;;;;;5.67;0.00;;;;;-145.03;100.00;62373.16;4976179;28;45673;-84
2022/11/07 02:14:14;;;;;;;;;1.67;1.67;;;;;-145.03;100.00;62373.16;4973760;28;45891;-84
2022/11/07 02:16:40;;;;;;;;;1.00;1.00;;;;;-145.03;100.00;62373.16;4975219;28;45595;-85
2022/11/07 02:19:17;;;;;;;;;1.00;1.00;;;;;-145.03;100.00;62373.16;4959640;28;45970;-85
2022/11/07 02:21:50;;;;;;;;;2.00;2.00;;;;;-145.03;100.00;62373.16;4976089;28;45520;-85
2022/11/07 02:24:31;;;;;;;;;1.00;1.00;;;;;-145.03;100.00;62373.16;5024808;28;45325;-85
2022/11/07 02:26:58;;;;;;;;;1.67;0.67;;;;;-145.03;100.00;62373.16;5035390;28;45649;-84
2022/11/07 02:29:25;;;;;;;;;2.33;1.00;;;;;-145.03;100.00;62373.16;5033389;28;45524;-85
2022/11/07 02:32:04;;;;;;;;;3.67;2.00;;;;;-145.03;100.00;62373.16;5023059;28;45298;-85
2022/11/07 02:34:29;;;;;;;;;1.33;1.33;;;;;-145.03;100.00;62373.16;5018773;28;45555;-85
2022/11/07 02:36:57;;;;;;;;;1.00;1.00;;;;;-145.03;100.00;62373.16;5033887;28;45445;-85
2022/11/07 02:39:23;;;;;;;;;2.00;1.00;;;;;-145.03;100.00;62373.16;5035813;28;45674;-85
2022/11/07 02:41:50;;;;;;;;;2.00;1.67;;;;;-145.03;100.00;62373.16;5017547;28;45489;-85
2022/11/07 02:44:16;;;;;;;;;1.33;1.00;;;;;-145.03;100.00;62373.16;5035741;28;45428;-85
2022/11/07 02:46:41;;;;;;;;;3.00;2.00;;;;;-145.03;100.00;62373.16;5035610;28;45488;-84
2022/11/07 02:49:07;;;;;;;;;2.00;0.33;;;;;-145.03;100.00;62373.16;5035527;28;45447;-85
2022/11/07 02:51:32;;;;;;;;;6.00;1.00;;;;;-145.03;100.00;62373.16;5032062;28;45493;-85
2022/11/07 02:53:58;;;;;;;;;1.00;1.00;;;;;-145.03;100.00;62373.16;5034492;28;45693;-85
2022/11/07 02:56:23;;;;;;;;;3.67;0.67;;;;;-145.03;100.00;62373.16;5037032;28;46144;-85
2022/11/07 02:58:51;;;;;;;;;3.67;1.00;;;;;-145.03;100.00;62373.16;5037325;28;45522;-85
2022/11/07 03:01:17;;;;;;;;;0.67;0.00;;;;;-145.03;100.00;62373.16;5036796;28;45339;-86
2022/11/07 03:03:45;;;;;;;;;3.67;3.00;;;;;-145.03;100.00;62373.16;5034471;28;45924;-85
2022/11/07 03:06:13;;;;;;;;;2.00;0.00;;;;;-145.03;100.00;62373.16;5034708;28;45365;-85
2022/11/07 03:08:39;;;;;;;;;0.67;0.00;;;;;-145.03;100.00;62373.16;5036146;28;45373;-85
2022/11/07 03:11:05;;;;;;;;;2.00;2.00;;;;;-145.03;100.00;62373.16;5034354;28;45448;-72
2022/11/07 03:13:31;;;;;;;;;1.00;1.00;;;;;-145.03;100.00;62373.16;5016473;28;45308;-73
2022/11/07 03:15:57;;;;;;;;;2.67;1.00;;;;;-145.03;100.00;62373.16;5034495;28;45912;-72
2022/11/07 03:18:23;;;;;;;;;1.67;1.00;;;;;-145.03;100.00;62373.16;5034993;28;45474;-72
2022/11/07 03:20:49;;;;;;;;;2.00;2.00;;;;;-145.03;100.00;62373.16;5036127;28;45449;-72
2022/11/07 03:23:14;;;;;;;;;1.33;0.67;;;;;-145.03;100.00;62373.16;5032492;28;45571;-72
2022/11/07 03:25:41;;;;;;;;;0.67;0.67;;;;;-145.03;100.00;62373.16;5031626;28;45968;-72
2022/11/07 03:28:07;;;;;;;;;2.67;0.33;;;;;-145.03;100.00;62373.16;5033346;28;45500;-72
2022/11/07 03:30:33;;;;;;;;;1.00;1.00;;;;;-145.03;100.00;62373.16;5034720;28;45421;-72
2022/11/07 03:32:59;;;;;;;;;4.67;3.00;;;;;-145.03;100.00;62373.16;5021056;28;45451;-72
2022/11/07 03:35:24;;;;;;;;;2.00;1.00;;;;;-145.03;100.00;62373.16;5034728;28;45516;-72
2022/11/07 03:37:50;;;;;;;;;3.00;1.00;;;;;-145.03;100.00;62373.16;5033051;28;45532;-72
2022/11/07 03:40:16;;;;;;;;;1.00;1.00;;;;;-145.03;100.00;62373.16;5033374;28;45452;-72
2022/11/07 03:42:43;;;;;;;;;1.00;1.00;;;;;-145.03;100.00;62373.16;5035287;28;45471;-72
2022/11/07 03:45:10;;;;;;;;;2.33;2.00;;;;;-145.03;100.00;62373.16;5034725;28;46401;-72
2022/11/07 03:47:37;;;;;;;;;3.33;0.67;;;;;-145.03;100.00;62373.16;5032673;28;45472;-71
2022/11/07 03:50:03;;;;;;;;;1.00;1.00;;;;;-145.03;100.00;62373.16;5029089;28;45373;-72
2022/11/07 03:52:29;;;;;;;;;1.00;1.00;;;;;-145.03;100.00;62373.16;5015812;28;45750;-72
2022/11/07 03:54:55;;;;;;;;;2.00;2.00;;;;;-145.03;100.00;62373.16;5031701;28;45460;-71
2022/11/07 03:57:20;;;;;;;;;2.00;1.00;;;;;-145.03;100.00;62373.16;5032103;28;45605;-72
2022/11/07 03:59:46;;;;;;;;;3.00;0.33;;;;;-145.03;100.00;62373.16;5032376;28;45409;-72
2022/11/07 04:02:16;;;;;;;;;2.00;2.00;;;;;-145.03;100.00;62373.16;5031373;28;45517;-71
2022/11/07 04:04:41;;;;;;;;;0.00;0.00;;;;;-145.03;100.00;62373.16;5027394;28;45402;-71
2022/11/07 04:07:07;;;;;;;;;3.33;2.00;;;;;-145.03;100.00;62373.16;5030239;28;47063;-72
2022/11/07 04:09:32;;;;;;;;;1.00;1.00;;;;;-145.03;100.00;62373.16;5033138;28;45516;-71
2022/11/07 04:17:27;;;;;;;;;1.00;1.00;;;;;-145.03;100.00;62373.16;5032590;28;46438;-72
2022/11/07 04:19:54;;;;;;;;;3.33;1.00;;;;;-145.03;100.00;62373.16;5032122;28;45462;-71
2022/11/07 04:22:21;;;;;;;;;1.67;1.00;;;;;-145.03;100.00;62373.16;5034661;28;45409;-72
2022/11/07 04:24:48;;;;;;;;;1.00;0.33;;;;;-145.03;100.00;62373.16;5029816;28;46208;-72
2022/11/07 04:30:22;;;;;;;;;3.00;2.00;;;;;-145.03;100.00;62373.16;5029795;28;45496;-71
2022/11/07 04:32:53;;;;;;;;;4.00;2.00;;;;;-145.03;100.00;62373.16;5030177;28;45458;-72
2022/11/07 04:35:21;;;;;;;;;2.00;1.00;;;;;-145.03;100.00;62373.16;5032437;28;45471;-72
2022/11/07 04:37:47;;;;;;;;;2.00;1.00;;;;;-145.03;100.00;62373.16;5033738;28;45554;-72
2022/11/07 04:40:13;;;;;;;;;0.33;0.00;;;;;-145.03;100.00;62373.16;5029975;28;45543;-72
2022/11/07 04:42:38;;;;;;;;;1.00;1.00;;;;;-145.03;100.00;62373.16;5033844;28;45258;-72
2022/11/07 04:45:05;;;;;;;;;0.33;0.33;;;;;-145.03;100.00;62373.16;5031162;28;46167;-72
2022/11/07 04:47:30;;;;;;;;;1.00;1.00;;;;;-145.03;100.00;62373.16;5025864;28;45552;-71
2022/11/07 04:49:56;;;;;;;;;4.00;2.00;;;;;-145.03;100.00;62373.16;5032456;28;45488;-71
2022/11/07 04:52:21;;;;;;;;;2.33;2.00;;;;;-145.03;100.00;62373.16;5031604;28;45619;-72
2022/11/07 04:54:47;;;;;;;;;5.33;1.00;;;;;-145.03;100.00;62373.16;5015225;28;46946;-71
2022/11/07 04:57:14;;;;;;;;;2.00;0.00;;;;;-145.03;100.00;62373.16;5013830;28;45799;-72
2022/11/07 04:59:41;;;;;;;;;4.00;1.00;;;;;-145.03;100.00;62373.16;5026158;28;45426;-71
2022/11/07 05:02:11;;;;;;;;;1.00;1.00;;;;;-145.03;100.00;62373.16;5037725;28;45441;-72
2022/11/07 05:04:37;;;;;;;;;1.67;0.67;;;;;-145.03;100.00;62373.16;5021074;28;45562;-71
2022/11/07 05:07:03;;;;;;;;;3.33;1.00;;;;;-145.03;100.00;62373.16;5036531;28;45579;-71
2022/11/07 05:09:29;;;;;;;;;1.00;1.00;;;;;-145.03;100.00;62373.16;5036861;28;45632;-72
2022/11/07 05:11:55;;;;;;;;;0.50;0.00;;;;;-145.03;100.00;62373.16;5037120;28;45554;-84
2022/11/07 05:14:20;;;;;;;;;1.00;1.00;;;;;-145.03;100.00;62373.16;5035289;28;45341;-84
2022/11/07 05:16:46;;;;;;;;;1.00;1.00;;;;;-145.03;100.00;62373.16;5035988;28;45380;-84
2022/11/07 05:19:16;;;;;;;;;3.67;1.00;;;;;-145.03;100.00;62373.16;5036067;28;45633;-84
2022/11/07 05:21:42;;;;;;;;;4.33;1.67;;;;;-145.03;100.00;62373.16;5024919;28;45758;-84
2022/11/07 05:24:07;;;;;;;;;1.00;0.00;;;;;-145.03;100.00;62373.16;5036872;28;46271;-83
2022/11/07 05:26:32;;;;;;;;;0.00;0.00;;;;;-145.03;100.00;62373.16;5037340;28;45380;-85
2022/11/07 05:28:59;;;;;;;;;6.67;0.00;;;;;-145.03;100.00;62373.16;5018200;28;45685;-83
2022/11/07 05:31:24;;;;;;;;;2.33;1.67;;;;;-145.03;100.00;62373.16;5037032;28;45389;-85
2022/11/07 05:33:50;;;;;;;;;3.00;1.00;;;;;-145.03;100.00;62373.16;5036216;28;46040;-85
2022/11/07 05:36:18;;;;;;;;;1.00;1.00;;;;;-145.03;100.00;62373.16;5037595;28;45416;-85
2022/11/07 05:38:46;;;;;;;;;1.00;1.00;;;;;-145.03;100.00;62373.16;5036862;28;45310;-85
2022/11/07 05:41:14;;;;;;;;;2.00;1.00;;;;;-145.03;100.00;62373.16;5034040;28;45905;-84
2022/11/07 05:43:40;;;;;;;;;2.33;1.00;;;;;-145.03;100.00;62373.16;5025583;28;45534;-84
2022/11/07 05:46:06;;;;;;;;;2.33;1.00;;;;;-145.03;100.00;62373.16;5019076;28;45861;-85
2022/11/07 05:49:40;;;;;;;;;2.00;1.00;;;;;-145.03;100.00;62373.16;5036266;28;46406;-84
2022/11/07 05:52:06;;;;;;;;;2.00;0.67;;;;;-145.03;100.00;62373.16;4962697;28;45733;-85
2022/11/07 05:54:32;;;;;;;;;2.00;1.00;;;;;-145.03;100.00;62373.16;4984985;28;47208;-86
2022/11/07 05:56:58;;;;;;;;;1.33;0.33;;;;;-145.03;100.00;62373.16;4981428;28;45689;-86
2022/11/07 05:59:24;;;;;;;;;0.67;0.67;;;;;-145.03;100.00;62373.16;4984046;28;45405;-85
2022/11/07 06:01:50;;;;;;;;;0.67;0.00;;;;;-145.03;100.00;62373.16;4980993;28;45536;-86
2022/11/07 06:04:16;;;;;;;;;0.00;0.00;;;;;-145.03;100.00;62373.16;4984983;28;46002;-86
2022/11/07 06:06:41;;;;;;;;;1.00;1.00;;;;;-145.03;100.00;62373.16;4985524;28;45595;-85
2022/11/07 06:09:07;;;;;;;;;1.33;1.33;;;;;-145.03;100.00;62373.16;4974663;28;45434;-86
2022/11/07 06:11:32;;;;;;;;;1.00;1.00;;;;;-145.03;100.00;62373.16;4991483;28;45727;-86
2022/11/07 06:13:57;;;;;;;;;3.00;1.67;;;;;-145.03;100.00;62373.16;4984977;28;46009;-85
2022/11/07 06:16:23;;;;;;;;;0.00;0.00;;;;;-145.03;100.00;62373.16;4984860;28;45385;-85
2022/11/07 06:18:49;;;;;;;;;0.25;0.00;;;;;-145.03;100.00;62373.16;4983919;28;45638;-85
2022/11/07 06:21:15;;;;;;;;;4.33;0.00;;;;;-145.03;100.00;62373.16;4979368;28;45595;-84
2022/11/07 06:23:41;;;;;;;;;1.00;0.33;;;;;-145.03;100.00;62373.16;4972307;28;46263;-84
2022/11/07 06:26:06;;;;;;;;;0.67;0.67;;;;;-145.03;100.00;62373.16;4989204;28;45564;-85
2022/11/07 06:28:32;;;;;;;;;1.00;0.00;;;;;-145.03;100.00;62373.16;5030921;28;45487;-84
2022/11/07 06:31:01;;;;;;;;;1.00;0.00;;;;;-145.03;100.00;62373.16;5034070;28;45439;-84
2022/11/07 06:33:28;;;;;;;;;3.00;1.00;;;;;-145.03;100.00;62373.16;5035670;28;45495;-86
2022/11/07 06:35:54;;;;;;;;;2.00;1.00;;;;;-145.03;100.00;62373.16;5035489;28;45300;-86
2022/11/07 06:38:20;;;;;;;;;1.00;0.33;;;;;-145.03;100.00;62373.16;5014790;28;45666;-87
2022/11/07 06:40:45;;;;;;;;;0.00;0.00;;;;;-145.03;100.00;62373.16;5040003;28;45325;-87
2022/11/07 06:43:16;;;;;;;;;3.33;1.67;;;;;-145.03;100.00;62373.16;5033642;28;46953;-86
2022/11/07 06:45:43;;;;;;;;;0.67;0.00;;;;;-145.03;100.00;62373.16;5032870;28;45483;-87
2022/11/07 06:48:09;;;;;;;;;0.00;0.00;;;;;-145.03;100.00;62373.16;5035326;28;45489;-87
2022/11/07 06:50:34;;;;;;;;;0.00;0.00;;;;;-145.03;100.00;62373.16;5034209;28;45376;-86
2022/11/07 06:53:05;;;;;;;;;3.67;1.00;;;;;-145.03;100.00;62373.16;5029091;28;46606;-87
2022/11/07 06:55:32;;;;;;;;;1.00;1.00;;;;;-145.03;100.00;62373.16;5026465;28;45814;-84
2022/11/07 06:57:59;;;;;;;;;3.33;2.00;;;;;-145.03;100.00;62373.16;5032958;28;45416;-81
2022/11/07 07:00:29;;;;;;;;;1.33;1.00;;;;;-145.03;100.00;62373.16;5033809;28;46175;-82
2022/11/07 07:02:54;;;;;;;;;2.33;2.00;;;;;-145.03;100.00;62373.16;5032659;28;46689;-82
2022/11/07 07:05:20;;;;;;;;;1.00;1.00;;;;;-145.03;100.00;62373.16;5022211;28;45624;-82
2022/11/07 07:07:45;;;;;;;;;1.33;0.33;;;;;-145.03;100.00;62373.16;5038060;28;45787;-83
2022/11/07 07:10:11;;;;;;;;;0.67;0.00;;;;;-145.03;100.00;62373.16;5046068;28;45499;-77
2022/11/07 07:12:36;;;;;;;;;1.00;1.00;;;;;-145.03;100.00;62373.16;5035860;28;46091;-70
2022/11/07 07:15:01;;;;;;;;;2.33;1.67;;;;;-145.03;100.00;62373.16;5028670;28;45519;-73
2022/11/07 07:17:27;;;;;;;;;1.67;1.67;;;;;-145.03;100.00;62373.16;5036387;28;45425;-73
2022/11/07 07:19:52;;;;;;;;;1.00;1.00;;;;;-145.03;100.00;62373.16;5036756;28;45552;-73
2022/11/07 07:22:17;;;;;;;;;0.00;0.00;;;;;-145.03;100.00;62373.16;5034617;28;46322;-73
2022/11/07 07:24:43;;;;;;;;;1.00;1.00;;;;;-145.03;100.00;62373.16;5033204;28;45892;-78
2022/11/07 07:27:08;;;;;;;;;1.33;1.00;;;;;-145.03;100.00;62373.16;5036066;28;45507;-76
2022/11/07 07:29:34;;;;;;;;;0.00;0.00;;;;;-145.03;100.00;62373.16;5035669;28;45484;-75
2022/11/07 07:31:59;;;;;;;;;3.00;2.00;;;;;-145.03;100.00;62373.16;5035707;28;45592;-74
2022/11/07 07:34:24;;;;;;;;;2.00;0.00;;;;;-145.03;100.00;62373.16;5035868;28;45403;-74
2022/11/07 07:36:52;;;;;;;;;1.67;1.00;;;;;-145.03;100.00;62373.16;5034095;28;46124;-75
2022/11/07 07:39:18;;;;;;;;;1.00;1.00;;;;;-145.03;100.00;62373.16;5036840;28;45282;-80
2022/11/07 07:41:43;;;;;;;;;3.00;3.00;;;;;-145.03;100.00;62373.16;5032591;28;48332;-74
2022/11/07 07:44:08;;;;;;;;;1.00;1.00;;;;;-145.03;100.00;62373.16;5036814;28;45562;-71
2022/11/07 07:46:34;;;;;;;;;1.33;1.33;;;;;-145.03;100.00;62373.16;5031036;28;45769;-71
2022/11/07 07:48:59;;;;;;;;;3.33;2.00;;;;;-145.03;100.00;62373.16;5036580;28;45436;-71
2022/11/07 07:51:25;;;;;;;;;1.33;1.00;;;;;-145.03;100.00;62373.16;5027160;28;45472;-72
2022/11/07 07:53:50;;;;;;;;;2.00;2.00;;;;;-145.03;100.00;62373.16;5026593;28;45429;-79
2022/11/07 07:56:16;;;;;;;;;3.00;1.00;;;;;-145.03;100.00;62373.16;5036488;28;45393;-72
2022/11/07 07:58:42;;;;;;;;;1.33;1.33;;;;;-145.03;100.00;62373.16;5045410;28;45424;-85
2022/11/07 08:01:09;;;;;;;;;1.00;1.00;;;;;-145.03;100.00;62373.16;5038839;28;45757;-75
2022/11/07 08:03:35;;;;;;;;;4.00;2.00;;;;;-145.03;100.00;62373.16;5036473;28;45459;-71
2022/11/07 08:06:01;;;;;;;;;3.33;2.00;;;;;-145.03;100.00;62373.16;5035680;28;45502;-72
2022/11/07 08:08:26;;;;;;;;;4.00;1.00;;;;;-145.03;100.00;62373.16;5036708;28;45345;-73
2022/11/07 08:10:55;;;;;;;;;3.33;1.00;;;;;-145.03;100.00;62373.16;5034657;28;48431;-73
2022/11/07 08:13:22;;;;;;;;;2.67;1.00;;;;;-145.03;100.00;62373.16;5036622;28;45400;-73
2022/11/07 08:15:47;;;;;;;;;1.33;1.33;;;;;-145.03;100.00;62373.16;5015039;28;45569;-73
2022/11/07 08:18:13;;;;;;;;;2.00;2.00;;;;;-145.03;100.00;62373.16;5012684;28;45623;-74
2022/11/07 08:20:38;;;;;;;;;4.33;0.00;;;;;-145.03;100.00;62373.16;5019542;28;46142;-75
2022/11/07 08:23:07;;;;;;;;;1.00;1.00;;;;;-145.03;100.00;62373.16;5031549;28;45597;-74
2022/11/07 08:25:32;;;;;;;;;0.00;0.00;;;;;-145.03;100.00;62373.16;5016272;28;45420;-74
2022/11/07 08:27:58;;;;;;;;;0.00;0.00;;;;;-145.03;100.00;62373.16;5032094;28;45533;-74
2022/11/07 08:30:25;;;;;;;;;5.00;0.67;;;;;-145.03;100.00;62373.16;5015959;28;46065;-74
2022/11/07 08:32:51;;;;;;;;;1.00;1.00;;;;;-145.03;100.00;62373.16;5015876;28;45456;-74
2022/11/07 08:35:16;;;;;;;;;1.33;1.00;;;;;-145.03;100.00;62373.16;5028921;28;45619;-74
2022/11/07 08:37:41;;;;;;;;;1.00;1.00;;;;;-145.03;100.00;62373.16;5019989;28;45526;-74
2022/11/07 08:40:08;;;;;;;;;0.25;0.25;;;;;-145.03;100.00;62373.16;5017674;28;46261;-74
2022/11/07 08:42:33;;;;;;;;;0.00;0.00;;;;;-145.03;100.00;62373.16;5012829;28;45409;-74
2022/11/07 08:44:59;;;;;;;;;3.00;3.00;;;;;-145.03;100.00;62373.16;5010499;28;45628;-80
2022/11/07 08:47:24;;;;;;;;;3.00;0.67;;;;;-145.03;100.00;62373.16;5013944;28;45594;-76
2022/11/07 08:49:49;;;;;;;;;3.00;2.00;;;;;-145.03;100.00;62373.16;5016321;28;45389;-74
2022/11/07 08:52:15;;;;;;;;;1.25;0.75;;;;;-145.03;100.00;62373.16;5008237;28;45602;-76
2022/11/07 08:54:40;;;;;;;;;2.00;1.00;;;;;-145.03;100.00;62373.16;5016760;28;45516;-76
2022/11/07 08:57:05;;;;;;;;;2.00;1.00;;;;;-145.03;100.00;62373.16;5018585;28;45680;-76
2022/11/07 08:59:30;;;;;;;;;1.33;1.33;;;;;-145.03;100.00;62373.16;5019266;28;45479;-76
2022/11/07 09:01:56;;;;;;;;;2.00;0.25;;;;;-145.03;100.00;62373.16;5019204;28;45339;-76
2022/11/07 09:04:21;;;;;;;;;3.00;2.00;;;;;-145.03;100.00;62373.16;5019166;28;45367;-76
2022/11/07 09:06:46;;;;;;;;;4.50;1.25;;;;;-145.03;100.00;62373.16;5019395;28;45404;-76
2022/11/07 09:09:12;;;;;;;;;4.75;2.00;;;;;-145.03;100.00;62373.16;5018993;28;45948;-76
2022/11/07 09:11:37;;;;;;;;;3.25;1.00;;;;;-145.03;100.00;62373.16;5019621;28;45385;-76
2022/11/07 09:14:03;;;;;;;;;2.00;2.00;;;;;-145.03;100.00;62373.16;5018942;28;46047;-76
2022/11/07 09:16:28;;;;;;;;;0.50;0.50;;;;;-145.03;100.00;62373.16;5035382;28;45349;-76
2022/11/07 09:18:54;;;;;;;;;1.00;1.00;;;;;-145.03;100.00;62373.16;5038545;28;45741;-76
2022/11/07 09:21:20;;;;;;;;;2.25;1.00;;;;;-145.03;100.00;62373.16;5039188;28;45962;-76
2022/11/07 09:23:45;;;;;;;;;0.50;0.00;;;;;-145.03;100.00;62373.16;5038907;28;45553;-76
2022/11/07 09:26:11;;;;;;;;;1.50;1.00;;;;;-145.03;100.00;62373.16;5039453;28;45436;-76
2022/11/07 09:28:37;;;;;;;;;1.00;1.00;;;;;-145.03;100.00;62373.16;5038563;28;45366;-75
2022/11/07 09:31:04;;;;;;;;;2.00;0.50;;;;;-145.03;100.00;62373.16;5038790;28;45476;-75
2022/11/07 09:33:30;;;;;;;;;3.25;0.25;;;;;-145.03;100.00;62373.16;5038799;28;45365;-75
2022/11/07 09:36:00;;;;;;;;;0.00;0.00;;;;;-145.03;100.00;62373.16;5039334;28;45374;-77
2022/11/07 09:38:26;;;;;;;;;0.00;0.00;;;;;-145.03;100.00;62373.16;5037946;28;45478;-76
2022/11/07 09:40:57;;;;;;;;;2.00;0.50;;;;;-145.03;100.00;62373.16;5020514;28;45811;-76
2022/11/07 09:43:55;;;;;;;;;0.25;0.25;;;;;-145.03;100.00;62373.16;5020546;28;45411;-76
2022/11/07 09:46:36;;;;;;;;;0.50;0.00;;;;;-145.03;100.00;62373.16;5037637;28;45523;-76
2022/11/07 09:49:13;;;;;;;;;0.00;0.00;;;;;-145.03;100.00;62373.16;5038554;28;46059;-76
2022/11/07 09:51:43;;;;;;;;;0.25;0.25;;;;;-145.03;100.00;62373.16;5038315;28;45405;-76
2022/11/07 09:54:16;;;;;;;;;2.00;1.00;;;;;-145.03;100.00;62373.16;5038409;28;45337;-76
2022/11/07 09:56:42;;;;;;;;;0.50;0.50;;;;;-145.03;100.00;62373.16;5026250;28;45412;-76
2022/11/07 09:59:19;;;;;;;;;1.00;1.00;;;;;-145.03;100.00;62373.16;5038048;28;46105;-76
2022/11/07 10:01:44;;;;;;;;;2.00;1.00;;;;;-145.03;100.00;62373.16;5038221;28;45275;-76
2022/11/07 10:04:16;;;;;;;;;2.67;1.00;;;;;-145.03;100.00;62373.16;5038268;28;46094;-76
2022/11/07 10:06:50;;;;;;;;;1.00;0.00;;;;;-145.03;100.00;62373.16;5038848;28;45417;-76
2022/11/07 10:09:36;;;;;;;;;0.00;0.00;;;;;-145.03;100.00;62373.16;5038299;28;45680;-76
2022/11/07 10:12:34;;;;;;;;;1.00;1.00;;;;;-145.03;100.00;62373.16;5036745;28;45496;-76
2022/11/07 10:15:37;;;;;;;;;0.50;0.25;;;;;-145.03;100.00;62373.16;5028821;28;45433;-76
2022/11/07 10:18:17;;;;;;;;;2.75;1.00;;;;;-145.03;100.00;62373.16;5019295;28;45597;-76
2022/11/07 10:21:07;;;;;;;;;1.00;1.00;;;;;-145.03;100.00;62373.16;5037794;28;46373;-76
2022/11/07 10:24:16;;;;;;;;;0.75;0.75;;;;;-145.03;100.00;62373.16;5038170;28;45496;-76
2022/11/07 10:26:44;;;;;;;;;1.00;1.00;;;;;-145.03;100.00;62373.16;4995861;28;45578;-76
2022/11/07 10:29:13;;;;;;;;;1.00;1.00;;;;;-145.03;100.00;62373.16;4976392;28;45509;-77
2022/11/07 10:31:43;;;;;;;;;0.00;0.00;;;;;-145.03;100.00;62373.16;4990176;28;46245;-76
2022/11/07 10:34:33;;;;;;;;;1.50;1.00;;;;;-145.03;100.00;62373.16;4996069;28;45649;-77
2022/11/07 10:36:59;;;;;;;;;2.00;1.00;;;;;-145.03;100.00;62373.16;4995828;28;45774;-76
2022/11/07 10:39:24;;;;;;;;;2.75;1.00;;;;;-145.03;100.00;62373.16;4979753;28;45440;-77
2022/11/07 10:42:06;;;;;;;;;3.25;0.25;;;;;-145.03;100.00;62373.16;4978754;28;46240;-77
2022/11/07 10:44:33;;;;;;;;;2.50;1.75;;;;;-145.03;100.00;62373.16;4995327;28;45434;-77
2022/11/07 10:46:59;;;;;;;;;1.00;1.00;;;;;-145.03;100.00;62373.16;4995635;28;45521;-76
2022/11/07 10:49:27;;;;;;;;;4.75;1.50;;;;;-145.03;100.00;62373.16;4996130;28;45666;-76
2022/11/07 10:51:54;;;;;;;;;0.50;0.00;;;;;-145.03;100.00;62373.16;4995495;28;45570;-76
2022/11/07 10:54:25;;;;;;;;;5.50;1.25;;;;;-145.03;100.00;62373.16;4995524;28;45489;-76
2022/11/07 10:57:10;;;;;;;;;3.00;1.50;;;;;-145.03;100.00;62373.16;4995429;28;45354;-76
2022/11/07 10:59:38;;;;;;;;;1.00;1.00;;;;;-145.03;100.00;62373.16;4995569;28;45521;-76
2022/11/07 11:02:23;;;;;;;;;1.00;1.00;;;;;-145.03;100.00;62373.16;4985331;28;46085;-77
2022/11/07 11:05:03;;;;;;;;;2.75;1.00;;;;;-145.03;100.00;62373.16;5022780;28;45330;-77
2022/11/07 11:07:39;;;;;;;;;1.00;1.00;;;;;-145.03;100.00;62373.16;5037416;28;45456;-76
2022/11/07 11:10:19;;;;;;;;;0.75;0.75;;;;;-145.03;100.00;62373.16;5037663;28;45321;-76
2022/11/07 11:12:46;;;;;;;;;0.00;0.00;;;;;-145.03;100.00;62373.16;5037044;28;45513;-78
2022/11/07 11:15:13;;;;;;;;;2.25;1.50;;;;;-145.03;100.00;62373.16;5037200;28;45427;-76
2022/11/07 11:17:39;;;;;;;;;1.00;1.00;;;;;-145.03;100.00;62373.16;5037147;28;45350;-76
2022/11/07 11:20:42;;;;;;;;;2.00;1.00;;;;;-145.03;100.00;62373.16;5037651;28;45484;-77
2022/11/07 11:23:20;;;;;;;;;3.75;0.25;;;;;-145.03;100.00;62373.16;5028760;28;46601;-76
2022/11/07 11:25:49;;;;;;;;;3.25;1.00;;;;;-145.03;100.00;62373.16;5036779;28;45409;-77
2022/11/07 11:28:27;;;;;;;;;2.00;0.50;;;;;-145.03;100.00;62373.16;5037036;28;45413;-77